Time;durP1;ratioP1;P1;durP2;ratioP2;P2;SDS_P1;SDS_P2;PMS_P1;PMS_P2;Temp;Humidity;BMP_temperature;BMP_pressure;BME280_temperature;BME280_humidity;BME280_pressure;Samples;Min_cycle;Max_cycle;Signal;HPM_P1;HPM_P2
2024/04/02 00:00:18;;;;;;;4.90;2.20;;;8.80;99.90;;;;;;4936579;28;20450;-62
2024/04/02 00:02:46;;;;;;;4.47;2.37;;;8.80;99.90;;;;;;4921818;28;20579;-62
2024/04/02 00:05:14;;;;;;;4.53;2.33;;;8.80;99.90;;;;;;4930937;28;20196;-62
2024/04/02 00:07:40;;;;;;;3.67;2.43;;;8.70;99.90;;;;;;4932381;28;20217;-63
2024/04/02 00:10:11;;;;;;;2.53;2.30;;;8.70;99.90;;;;;;4945820;28;20319;-63
2024/04/02 00:12:37;;;;;;;2.20;2.07;;;8.70;99.90;;;;;;4938306;28;20230;-62
2024/04/02 00:15:05;;;;;;;2.83;2.23;;;8.80;99.90;;;;;;4934632;28;20695;-62
2024/04/02 00:17:32;;;;;;;2.20;1.90;;;8.80;99.90;;;;;;4939825;28;20799;-63
2024/04/02 00:20:04;;;;;;;3.47;2.23;;;8.70;99.90;;;;;;4934689;28;20239;-63
2024/04/02 00:22:30;;;;;;;7.00;2.63;;;8.70;99.90;;;;;;4934666;28;20237;-63
2024/04/02 00:24:58;;;;;;;4.77;2.23;;;8.60;99.90;;;;;;4940537;28;20677;-63
2024/04/02 00:27:27;;;;;;;3.87;2.23;;;8.60;99.90;;;;;;4940791;28;20242;-63
2024/04/02 00:29:54;;;;;;;4.50;2.13;;;8.60;99.90;;;;;;4934120;28;20261;-62
2024/04/02 00:32:22;;;;;;;2.30;2.10;;;8.60;99.90;;;;;;4934246;28;20286;-63
2024/04/02 00:34:50;;;;;;;5.70;2.20;;;8.60;99.90;;;;;;4931316;28;20293;-63
2024/04/02 00:37:17;;;;;;;4.90;2.00;;;8.60;99.90;;;;;;4940048;28;20345;-63
2024/04/02 00:39:47;;;;;;;3.23;2.10;;;8.60;99.90;;;;;;4938502;28;20249;-63
2024/04/02 00:42:14;;;;;;;2.87;2.43;;;8.50;99.90;;;;;;4938163;28;20228;-63
2024/04/02 00:44:41;;;;;;;3.27;2.10;;;8.50;99.90;;;;;;4935154;28;20197;-62
2024/04/02 00:47:09;;;;;;;3.03;2.20;;;8.50;99.90;;;;;;4935096;28;20202;-63
2024/04/02 00:49:37;;;;;;;3.77;2.33;;;8.50;99.90;;;;;;4936772;28;20224;-63
2024/04/02 00:52:05;;;;;;;2.17;2.07;;;8.40;99.90;;;;;;4942229;28;20224;-63
2024/04/02 00:54:34;;;;;;;2.93;2.17;;;8.40;99.90;;;;;;4937546;28;20228;-63
2024/04/02 00:57:02;;;;;;;8.37;2.40;;;8.40;99.90;;;;;;4940295;28;20346;-62
2024/04/02 00:59:30;;;;;;;2.30;2.10;;;8.50;99.90;;;;;;4939358;28;20220;-62
2024/04/02 01:01:56;;;;;;;4.50;2.07;;;8.60;99.90;;;;;;4940708;28;20236;-63
2024/04/02 01:04:24;;;;;;;6.80;2.40;;;8.60;99.90;;;;;;4940081;28;21111;-63
2024/04/02 01:06:50;;;;;;;3.50;2.10;;;8.80;99.90;;;;;;4935629;28;20327;-63
2024/04/02 01:09:19;;;;;;;3.77;2.13;;;8.80;99.90;;;;;;4945792;28;20220;-62
2024/04/02 01:11:49;;;;;;;2.87;2.50;;;8.80;99.90;;;;;;4941719;28;20239;-62
2024/04/02 01:14:16;;;;;;;2.33;2.13;;;8.80;99.90;;;;;;4939775;28;20193;-63
2024/04/02 01:16:44;;;;;;;5.30;2.50;;;8.80;99.90;;;;;;4934262;28;20243;-63
2024/04/02 01:19:11;;;;;;;4.63;2.10;;;8.80;99.90;;;;;;4936132;28;20234;-63
2024/04/02 01:21:38;;;;;;;2.40;2.30;;;8.80;99.90;;;;;;4934097;28;20255;-62
2024/04/02 01:24:07;;;;;;;4.33;2.27;;;8.80;99.90;;;;;;4932086;28;20244;-62
2024/04/02 01:26:34;;;;;;;2.60;2.40;;;8.80;99.90;;;;;;4931948;28;20223;-63
2024/04/02 01:29:03;;;;;;;5.10;2.17;;;8.90;99.90;;;;;;4943702;28;20231;-63
2024/04/02 01:31:30;;;;;;;2.10;2.00;;;8.80;99.90;;;;;;4945266;28;20719;-63
2024/04/02 01:33:58;;;;;;;4.03;2.20;;;8.90;99.90;;;;;;4936762;28;20721;-63
2024/04/02 01:36:25;;;;;;;3.77;2.10;;;8.90;99.90;;;;;;4935203;28;20231;-63
2024/04/02 01:38:52;;;;;;;3.50;2.40;;;8.80;99.90;;;;;;4931840;28;20225;-63
2024/04/02 01:41:19;;;;;;;3.63;2.33;;;8.80;99.90;;;;;;4939807;28;20746;-63
2024/04/02 01:43:48;;;;;;;4.23;2.57;;;8.70;99.90;;;;;;4937986;28;20225;-62
2024/04/02 01:46:15;;;;;;;5.17;2.30;;;8.70;99.90;;;;;;4934520;28;20696;-63
2024/04/02 01:48:42;;;;;;;6.43;2.57;;;8.80;99.90;;;;;;4918852;28;20219;-63
2024/04/02 01:51:09;;;;;;;3.97;2.40;;;8.80;99.90;;;;;;4942922;28;20236;-63
2024/04/02 01:53:36;;;;;;;3.10;2.20;;;8.80;99.90;;;;;;4941638;28;20196;-62
2024/04/02 01:56:04;;;;;;;2.37;1.93;;;8.80;99.90;;;;;;4937309;28;20180;-63
2024/04/02 01:58:32;;;;;;;3.80;2.33;;;8.90;99.90;;;;;;4941233;28;20228;-63
2024/04/02 02:01:00;;;;;;;2.40;2.20;;;8.80;99.90;;;;;;4937527;28;21362;-64
2024/04/02 02:03:27;;;;;;;2.63;2.00;;;8.90;99.90;;;;;;4938576;28;20220;-62
2024/04/02 02:05:53;;;;;;;4.93;2.00;;;8.80;99.90;;;;;;4938660;28;20232;-63
2024/04/02 02:08:21;;;;;;;2.50;2.17;;;8.80;99.90;;;;;;4927830;28;20208;-62
2024/04/02 02:10:47;;;;;;;4.57;2.50;;;8.70;99.90;;;;;;4927980;28;20216;-63
2024/04/02 02:13:14;;;;;;;4.00;2.10;;;8.70;99.90;;;;;;4909094;28;20319;-63
2024/04/02 02:15:41;;;;;;;3.43;2.20;;;8.60;99.90;;;;;;4921381;28;20309;-63
2024/04/02 02:18:10;;;;;;;4.13;2.20;;;8.60;99.90;;;;;;4925066;28;20520;-62
2024/04/02 02:20:36;;;;;;;3.47;2.03;;;8.50;99.90;;;;;;4928672;28;20219;-62
2024/04/02 02:23:04;;;;;;;3.77;2.10;;;8.50;99.90;;;;;;4920058;28;20213;-62
2024/04/02 02:25:30;;;;;;;3.57;2.27;;;8.50;99.90;;;;;;4928067;28;20257;-62
2024/04/02 02:27:57;;;;;;;2.67;2.00;;;8.40;99.90;;;;;;4939393;28;20242;-62
2024/04/02 02:30:24;;;;;;;2.50;2.40;;;8.40;99.90;;;;;;4942987;28;20236;-63
2024/04/02 02:32:51;;;;;;;4.73;2.40;;;8.40;99.90;;;;;;4945284;28;20223;-62
2024/04/02 02:35:19;;;;;;;3.37;2.13;;;8.30;99.90;;;;;;4942655;28;20231;-62
2024/04/02 02:37:47;;;;;;;3.20;2.17;;;8.30;99.90;;;;;;4939487;28;20223;-63
2024/04/02 02:40:13;;;;;;;8.17;2.50;;;8.30;99.90;;;;;;4935235;28;20244;-63
2024/04/02 02:42:41;;;;;;;3.37;2.53;;;8.30;99.90;;;;;;4939278;28;20259;-63
2024/04/02 02:45:07;;;;;;;4.03;2.40;;;8.30;99.90;;;;;;4939987;28;20224;-63
2024/04/02 02:47:35;;;;;;;2.77;2.47;;;8.30;99.90;;;;;;4935920;28;20319;-61
2024/04/02 02:50:03;;;;;;;4.17;2.93;;;8.30;99.90;;;;;;4938473;28;20197;-63
2024/04/02 02:52:32;;;;;;;4.17;2.27;;;8.20;99.90;;;;;;4938908;28;20227;-63
2024/04/02 02:54:58;;;;;;;5.77;2.40;;;8.20;99.90;;;;;;4938125;28;20226;-63
2024/04/02 02:57:26;;;;;;;4.07;2.50;;;8.20;99.90;;;;;;4934952;28;20234;-62
2024/04/02 02:59:52;;;;;;;3.50;2.33;;;8.20;99.90;;;;;;4942123;28;20344;-62
2024/04/02 03:02:20;;;;;;;4.83;2.20;;;8.20;99.90;;;;;;4934753;28;20323;-63
2024/04/02 03:04:49;;;;;;;2.33;2.13;;;8.20;99.90;;;;;;4938265;28;20279;-63
2024/04/02 03:07:17;;;;;;;4.20;2.30;;;8.20;99.90;;;;;;4935971;28;20224;-63
2024/04/02 03:09:44;;;;;;;5.13;2.23;;;8.20;99.90;;;;;;4936314;28;20915;-63
2024/04/02 03:12:12;;;;;;;4.27;2.40;;;8.20;99.90;;;;;;4935272;28;20642;-63
2024/04/02 03:14:39;;;;;;;5.73;2.30;;;8.20;99.90;;;;;;4940132;28;20207;-61
2024/04/02 03:17:06;;;;;;;2.20;2.10;;;8.20;99.90;;;;;;4937317;28;20611;-62
2024/04/02 03:19:33;;;;;;;5.40;2.27;;;8.20;99.90;;;;;;4936840;28;20232;-63
2024/04/02 03:22:00;;;;;;;4.40;2.40;;;8.20;99.90;;;;;;4937480;28;20216;-63
2024/04/02 03:24:27;;;;;;;5.77;2.40;;;8.20;99.90;;;;;;4937108;28;20699;-62
2024/04/02 03:26:55;;;;;;;2.37;2.27;;;8.20;99.90;;;;;;4937337;28;21656;-63
2024/04/02 03:29:22;;;;;;;10.57;2.50;;;8.10;99.90;;;;;;4939055;28;21048;-63
2024/04/02 03:31:49;;;;;;;3.63;2.20;;;8.10;99.90;;;;;;4939574;28;20464;-63
2024/04/02 03:34:17;;;;;;;6.13;2.90;;;8.10;99.90;;;;;;4939103;28;20760;-61
2024/04/02 03:36:44;;;;;;;5.90;2.50;;;8.20;99.90;;;;;;4935477;28;20725;-63
2024/04/02 03:39:12;;;;;;;6.87;2.50;;;8.10;99.90;;;;;;4940142;28;20228;-61
2024/04/02 03:41:39;;;;;;;6.40;2.80;;;8.10;99.90;;;;;;4944355;28;20197;-60
2024/04/02 03:44:12;;;;;;;6.60;3.13;;;8.10;99.90;;;;;;4942636;28;20188;-60
2024/04/02 03:46:39;;;;;;;7.33;2.47;;;8.00;99.90;;;;;;4935521;29;20890;-61
2024/04/02 03:49:06;;;;;;;7.77;2.90;;;8.00;99.90;;;;;;4935839;28;20211;-60
2024/04/02 03:51:32;;;;;;;15.17;3.00;;;8.00;99.90;;;;;;4951441;28;20633;-60
2024/04/02 03:54:00;;;;;;;7.83;2.43;;;8.00;99.90;;;;;;4949018;28;20220;-61
2024/04/02 03:56:27;;;;;;;6.27;2.20;;;8.00;99.90;;;;;;4941370;28;20228;-61
2024/04/02 03:58:54;;;;;;;9.43;2.43;;;8.00;99.90;;;;;;4945366;28;20308;-61
2024/04/02 04:01:22;;;;;;;5.77;2.20;;;8.00;99.90;;;;;;4942789;28;20291;-62
2024/04/02 04:03:50;;;;;;;8.87;2.27;;;8.00;99.90;;;;;;4944390;28;20494;-61
2024/04/02 04:06:17;;;;;;;4.07;2.10;;;8.00;99.90;;;;;;4943868;28;20224;-62
2024/04/02 04:08:44;;;;;;;6.83;2.60;;;8.00;99.90;;;;;;4950850;28;20221;-62
2024/04/02 04:11:10;;;;;;;4.93;2.33;;;8.00;99.90;;;;;;4941847;29;20699;-61
2024/04/02 04:13:38;;;;;;;3.83;2.40;;;8.00;99.90;;;;;;4920908;29;20235;-62
2024/04/02 04:16:04;;;;;;;5.70;2.67;;;7.90;99.90;;;;;;4938610;28;20311;-62
2024/04/02 04:18:33;;;;;;;10.23;2.63;;;7.90;99.90;;;;;;4949307;28;20238;-62
2024/04/02 04:21:01;;;;;;;16.40;3.43;;;7.90;99.90;;;;;;4947772;28;20311;-60
2024/04/02 04:23:29;;;;;;;13.70;2.47;;;7.90;99.90;;;;;;4942855;28;20196;-60
2024/04/02 04:26:14;;;;;;;9.37;2.80;;;7.90;99.90;;;;;;4952653;28;20226;-60
2024/04/02 04:28:42;;;;;;;7.23;2.77;;;7.90;99.90;;;;;;4948872;28;20224;-60
2024/04/02 04:31:48;;;;;;;9.90;2.53;;;7.90;99.90;;;;;;4950271;28;20268;-60
2024/04/02 04:34:17;;;;;;;10.13;2.57;;;7.90;99.90;;;;;;4939788;28;20224;-61
2024/04/02 04:36:44;;;;;;;8.40;2.60;;;7.80;99.90;;;;;;4942414;28;20220;-61
2024/04/02 04:39:12;;;;;;;10.20;2.90;;;7.80;99.90;;;;;;4942038;29;20252;-62
2024/04/02 04:41:40;;;;;;;18.23;2.90;;;7.80;99.90;;;;;;4944795;28;20195;-60
2024/04/02 04:44:06;;;;;;;9.93;3.00;;;7.80;99.90;;;;;;4941649;28;20603;-62
2024/04/02 04:46:34;;;;;;;6.97;2.40;;;7.90;99.90;;;;;;4941770;28;20983;-61
2024/04/02 04:49:00;;;;;;;8.17;2.40;;;7.90;99.90;;;;;;4946512;28;20259;-60
2024/04/02 04:51:31;;;;;;;10.90;2.87;;;7.90;99.90;;;;;;4942266;28;20242;-61
2024/04/02 04:53:57;;;;;;;4.63;2.63;;;7.90;99.90;;;;;;4952529;28;20224;-61
2024/04/02 04:56:25;;;;;;;11.00;2.97;;;7.90;99.90;;;;;;4951138;28;20246;-60
2024/04/02 04:58:51;;;;;;;9.20;2.90;;;7.80;99.90;;;;;;4945237;28;20213;-62
2024/04/02 05:01:19;;;;;;;13.10;2.87;;;7.80;99.90;;;;;;4948317;28;20316;-61
2024/04/02 05:03:45;;;;;;;16.10;2.90;;;7.80;99.90;;;;;;4928220;29;20306;-61
2024/04/02 05:06:13;;;;;;;9.23;2.77;;;7.70;99.90;;;;;;4931460;29;20590;-60
2024/04/02 05:08:40;;;;;;;17.03;2.97;;;7.70;99.90;;;;;;4929122;28;20550;-60
2024/04/02 05:11:08;;;;;;;9.33;2.63;;;7.80;99.90;;;;;;4947116;28;20200;-60
2024/04/02 05:13:34;;;;;;;6.87;2.63;;;7.80;99.90;;;;;;4942868;28;20250;-61
2024/04/02 05:16:04;;;;;;;9.67;2.63;;;7.80;99.90;;;;;;4943463;28;20216;-61
2024/04/02 05:18:30;;;;;;;10.80;2.93;;;7.80;99.90;;;;;;4942566;28;20225;-61
2024/04/02 05:20:58;;;;;;;16.93;3.00;;;7.80;99.90;;;;;;4936056;29;20309;-61
2024/04/02 05:23:26;;;;;;;8.23;2.80;;;7.80;99.90;;;;;;4939899;29;20204;-61
2024/04/02 05:26:00;;;;;;;12.90;3.47;;;7.80;99.90;;;;;;4946813;28;20271;-61
2024/04/02 05:28:27;;;;;;;10.27;2.90;;;7.80;99.90;;;;;;4949870;29;20234;-61
2024/04/02 05:30:54;;;;;;;16.33;3.83;;;7.80;99.90;;;;;;4951356;29;20232;-60
2024/04/02 05:33:21;;;;;;;14.17;3.43;;;7.80;99.90;;;;;;4942428;28;20315;-61
2024/04/02 05:35:48;;;;;;;11.63;3.00;;;7.80;99.90;;;;;;4952515;28;20243;-61
2024/04/02 05:38:15;;;;;;;9.93;2.50;;;7.90;99.90;;;;;;4947693;29;20209;-61
2024/04/02 05:40:42;;;;;;;16.53;3.30;;;7.80;99.90;;;;;;4943490;28;20312;-60
2024/04/02 05:43:10;;;;;;;12.10;3.50;;;7.90;99.90;;;;;;4944002;28;20216;-61
2024/04/02 05:45:39;;;;;;;14.30;3.27;;;7.80;99.90;;;;;;4942793;29;20608;-60
2024/04/02 05:48:08;;;;;;;10.50;2.80;;;7.90;99.90;;;;;;4948783;28;20216;-61
2024/04/02 05:50:36;;;;;;;15.70;3.30;;;8.00;99.90;;;;;;4948473;28;20714;-61
2024/04/02 05:53:03;;;;;;;11.33;3.27;;;8.00;99.90;;;;;;4929362;29;20291;-61
2024/04/02 05:55:30;;;;;;;14.37;3.33;;;8.10;99.90;;;;;;4943301;28;20304;-61
2024/04/02 05:57:57;;;;;;;10.53;3.53;;;8.10;99.90;;;;;;4940385;29;20216;-61
2024/04/02 06:00:28;;;;;;;18.63;3.07;;;8.10;99.90;;;;;;4948567;28;20232;-61
2024/04/02 06:02:54;;;;;;;15.03;2.93;;;8.10;99.90;;;;;;4950663;28;20622;-60
2024/04/02 06:05:22;;;;;;;11.07;3.60;;;8.20;99.90;;;;;;4949251;28;20220;-61
2024/04/02 06:07:49;;;;;;;13.40;3.27;;;8.30;99.90;;;;;;4942762;28;20242;-60
2024/04/02 06:10:20;;;;;;;9.40;2.83;;;8.40;99.90;;;;;;4938621;29;20336;-61
2024/04/02 06:12:46;;;;;;;15.47;3.20;;;8.40;99.90;;;;;;4943697;29;20227;-61
2024/04/02 06:15:13;;;;;;;10.43;3.00;;;8.50;99.90;;;;;;4944693;28;20225;-60
2024/04/02 06:17:41;;;;;;;13.47;3.03;;;8.60;99.90;;;;;;4943547;29;20567;-60
2024/04/02 06:20:09;;;;;;;10.83;3.13;;;8.70;99.90;;;;;;4947229;28;20314;-61
2024/04/02 06:26:00;;;;;;;14.43;2.93;;;9.00;99.90;;;;;;4950075;28;20287;-61
2024/04/02 06:28:27;;;;;;;11.97;3.07;;;9.10;99.90;;;;;;4949264;29;20247;-60
2024/04/02 06:30:54;;;;;;;17.70;2.90;;;9.20;99.90;;;;;;4942794;28;20219;-60
2024/04/02 06:33:22;;;;;;;10.20;2.63;;;9.30;99.90;;;;;;4947020;28;20224;-61
2024/04/02 06:35:49;;;;;;;8.90;2.73;;;9.30;99.90;;;;;;4940001;28;20584;-60
2024/04/02 06:38:16;;;;;;;11.37;2.90;;;9.30;99.90;;;;;;4943075;29;20668;-61
2024/04/02 06:40:43;;;;;;;8.03;3.30;;;9.40;99.90;;;;;;4944983;28;20250;-61
2024/04/02 06:46:34;;;;;;;7.60;2.60;;;9.50;99.90;;;;;;4952671;28;20212;-61
2024/04/02 06:49:02;;;;;;;17.17;3.47;;;9.50;99.90;;;;;;4940478;29;20231;-60
2024/04/02 06:51:29;;;;;;;9.57;2.73;;;9.70;99.90;;;;;;4940151;28;20271;-61
2024/04/02 06:53:56;;;;;;;12.70;2.90;;;10.20;99.90;;;;;;4936452;28;20232;-61
2024/04/02 06:56:25;;;;;;;12.17;3.27;;;10.50;99.90;;;;;;4936312;29;20604;-61
2024/04/02 06:58:51;;;;;;;13.77;2.50;;;10.90;99.90;;;;;;4944089;28;20777;-62
2024/04/02 07:01:21;;;;;;;13.37;3.20;;;11.40;99.90;;;;;;4939043;28;20233;-62
2024/04/02 07:03:47;;;;;;;13.90;3.47;;;11.50;99.90;;;;;;4940039;28;20223;-61
2024/04/02 07:06:16;;;;;;;11.57;3.00;;;11.60;99.90;;;;;;4943891;28;20224;-61
2024/04/02 07:08:46;;;;;;;7.67;2.57;;;11.70;99.90;;;;;;4952916;28;20252;-62
2024/04/02 07:11:14;;;;;;;5.97;2.47;;;11.80;99.90;;;;;;4949169;28;20247;-61
2024/04/02 07:13:41;;;;;;;12.83;2.90;;;12.10;99.90;;;;;;4943809;29;20220;-61
2024/04/02 07:16:09;;;;;;;8.50;2.50;;;12.50;99.90;;;;;;4944389;29;20307;-62
2024/04/02 07:18:36;;;;;;;12.30;3.20;;;12.70;99.90;;;;;;4941017;28;20583;-61
2024/04/02 07:21:05;;;;;;;7.73;2.50;;;12.60;99.90;;;;;;4943333;28;20236;-61
2024/04/02 07:23:33;;;;;;;9.70;2.40;;;12.80;99.90;;;;;;4943050;28;20707;-61
2024/04/02 07:26:01;;;;;;;8.20;2.60;;;13.10;99.90;;;;;;4943294;28;20227;-61
2024/04/02 07:28:27;;;;;;;8.43;2.63;;;12.80;99.90;;;;;;4941445;28;20240;-61
2024/04/02 07:30:55;;;;;;;6.93;2.43;;;12.30;99.90;;;;;;4941198;28;20975;-62
2024/04/02 07:33:21;;;;;;;11.50;2.60;;;11.80;99.90;;;;;;4939632;28;20216;-62
2024/04/02 07:35:49;;;;;;;6.67;2.70;;;11.50;99.90;;;;;;4943097;28;20311;-61
2024/04/02 07:38:15;;;;;;;12.60;3.10;;;11.20;99.90;;;;;;4941210;28;20259;-60
2024/04/02 07:40:44;;;;;;;8.97;2.70;;;11.00;99.90;;;;;;4943951;28;20251;-61
2024/04/02 07:43:11;;;;;;;10.43;2.63;;;10.90;99.90;;;;;;4940836;28;20228;-61
2024/04/02 07:45:39;;;;;;;13.43;3.03;;;10.80;99.90;;;;;;4945879;28;20224;-61
2024/04/02 07:48:06;;;;;;;12.90;2.97;;;10.80;99.90;;;;;;4938997;28;20221;-62
2024/04/02 07:50:35;;;;;;;10.60;2.57;;;11.00;99.90;;;;;;4940441;29;20286;-60
2024/04/02 07:53:02;;;;;;;9.13;2.90;;;11.20;99.90;;;;;;4953175;28;20713;-61
2024/04/02 07:55:29;;;;;;;9.53;2.40;;;11.50;99.90;;;;;;4942974;28;20220;-61
2024/04/02 07:57:57;;;;;;;12.03;2.53;;;11.50;99.90;;;;;;4940982;29;20270;-61
2024/04/02 08:00:24;;;;;;;11.20;3.07;;;11.60;99.90;;;;;;4943654;28;20722;-61
2024/04/02 08:02:50;;;;;;;6.43;2.80;;;11.50;99.90;;;;;;4942197;29;20193;-60
2024/04/02 08:05:18;;;;;;;8.93;2.33;;;11.30;99.90;;;;;;4948481;28;20290;-61
2024/04/02 08:07:45;;;;;;;15.00;3.13;;;11.20;99.90;;;;;;4939972;28;20219;-61
2024/04/02 08:10:13;;;;;;;12.17;2.80;;;11.20;99.90;;;;;;4941771;28;20796;-63
2024/04/02 08:12:39;;;;;;;10.93;3.63;;;11.30;99.90;;;;;;4943887;28;20587;-61
2024/04/02 08:15:08;;;;;;;11.33;2.90;;;11.30;99.90;;;;;;4939377;28;20748;-61
2024/04/02 08:17:35;;;;;;;8.10;2.87;;;11.20;99.90;;;;;;4945337;28;20195;-61
2024/04/02 08:20:03;;;;;;;9.93;3.13;;;11.20;99.90;;;;;;4939557;28;20279;-61
2024/04/02 08:22:30;;;;;;;8.53;2.77;;;11.10;99.90;;;;;;4938209;28;20311;-61
2024/04/02 08:24:57;;;;;;;7.37;2.30;;;11.10;99.90;;;;;;4939223;28;20213;-62
2024/04/02 08:27:23;;;;;;;7.97;2.33;;;11.10;99.90;;;;;;4945352;28;20225;-61
2024/04/02 08:29:51;;;;;;;10.47;3.03;;;10.90;99.90;;;;;;4945809;28;20196;-61
2024/04/02 08:32:19;;;;;;;12.67;3.07;;;10.80;99.90;;;;;;4946542;28;20206;-61
2024/04/02 08:34:47;;;;;;;9.27;2.73;;;10.70;99.90;;;;;;4940977;29;20715;-61
2024/04/02 08:37:14;;;;;;;11.17;2.70;;;10.60;99.90;;;;;;4940919;28;20254;-62
2024/04/02 08:39:41;;;;;;;9.03;2.80;;;10.50;99.90;;;;;;4946148;28;20212;-62
2024/04/02 08:42:08;;;;;;;13.33;3.30;;;10.40;99.90;;;;;;4946062;28;20303;-61
2024/04/02 08:44:37;;;;;;;9.83;2.80;;;10.30;99.90;;;;;;4942193;28;20288;-61
2024/04/02 08:47:03;;;;;;;4.07;2.13;;;10.20;99.90;;;;;;4958497;28;20208;-62
2024/04/02 08:49:33;;;;;;;10.37;2.90;;;10.10;99.90;;;;;;4944794;28;20671;-63
2024/04/02 08:52:00;;;;;;;9.33;2.93;;;10.10;99.90;;;;;;4937133;28;20578;-62
2024/04/02 08:54:28;;;;;;;9.37;2.30;;;9.90;99.90;;;;;;4944449;28;20212;-62
2024/04/02 08:56:55;;;;;;;10.77;2.80;;;9.80;99.90;;;;;;4945401;28;20236;-62
2024/04/02 08:59:27;;;;;;;9.80;2.60;;;9.70;99.90;;;;;;4943970;28;20201;-61
2024/04/02 09:01:55;;;;;;;6.33;2.30;;;9.60;99.90;;;;;;4948683;28;21022;-61
2024/04/02 09:04:24;;;;;;;11.47;2.40;;;9.60;99.90;;;;;;4943427;28;20307;-62
2024/04/02 09:06:53;;;;;;;10.77;2.50;;;9.50;99.90;;;;;;4940167;28;20266;-61
2024/04/02 09:09:24;;;;;;;8.03;2.73;;;9.50;99.90;;;;;;4942228;28;20220;-62
2024/04/02 09:11:50;;;;;;;12.00;2.57;;;9.60;99.90;;;;;;4942051;28;20651;-61
2024/04/02 09:14:18;;;;;;;7.90;2.67;;;9.60;99.90;;;;;;4946555;28;20203;-61
2024/04/02 09:16:44;;;;;;;9.77;2.77;;;9.80;99.90;;;;;;4945812;28;20224;-61
2024/04/02 09:19:12;;;;;;;10.40;2.83;;;10.10;99.90;;;;;;4942372;28;20391;-61
2024/04/02 09:21:38;;;;;;;8.67;2.33;;;10.40;99.90;;;;;;4939532;28;20570;-61
2024/04/02 09:24:08;;;;;;;11.37;2.70;;;10.90;99.90;;;;;;4941566;28;20232;-61
2024/04/02 09:26:35;;;;;;;9.60;2.60;;;11.70;99.90;;;;;;4945239;28;20206;-61
2024/04/02 09:29:03;;;;;;;9.37;2.57;;;12.00;99.90;;;;;;4941114;28;20217;-61
2024/04/02 09:31:32;;;;;;;5.33;2.23;;;12.10;99.90;;;;;;4958801;28;20251;-61
2024/04/02 09:34:05;;;;;;;12.30;2.73;;;11.90;99.90;;;;;;4942139;28;20219;-61
2024/04/02 09:36:52;;;;;;;12.37;2.57;;;11.50;99.90;;;;;;4938921;28;20228;-61
2024/04/02 09:39:25;;;;;;;14.03;3.17;;;11.20;99.90;;;;;;4943094;28;20224;-62
2024/04/02 09:41:52;;;;;;;10.87;2.73;;;11.20;99.90;;;;;;4947112;28;20216;-64
2024/04/02 09:44:24;;;;;;;12.10;2.90;;;11.50;99.90;;;;;;4945596;28;20235;-61
2024/04/02 09:46:51;;;;;;;8.67;2.70;;;12.10;99.90;;;;;;4940993;28;20736;-62
2024/04/02 09:49:20;;;;;;;10.77;2.90;;;12.80;99.90;;;;;;4927967;29;20231;-62
2024/04/02 09:51:48;;;;;;;11.67;2.50;;;13.30;99.90;;;;;;4940394;28;20561;-60
2024/04/02 09:54:15;;;;;;;9.90;2.67;;;13.50;99.90;;;;;;4939674;28;20286;-62
2024/04/02 09:56:45;;;;;;;7.63;2.33;;;13.30;99.90;;;;;;4943652;28;20200;-62
2024/04/02 09:59:13;;;;;;;7.90;2.23;;;12.90;99.90;;;;;;4945315;28;20703;-62
2024/04/02 10:01:42;;;;;;;11.80;2.70;;;12.60;99.90;;;;;;4938681;28;20228;-61
2024/04/02 10:04:14;;;;;;;12.57;2.53;;;12.30;99.90;;;;;;4942174;28;20216;-60
2024/04/02 10:06:41;;;;;;;10.90;2.60;;;12.00;99.90;;;;;;4939971;28;20587;-61
2024/04/02 10:09:11;;;;;;;9.23;2.97;;;12.10;99.90;;;;;;4941780;28;21116;-62
2024/04/02 10:11:39;;;;;;;9.27;2.43;;;12.30;99.90;;;;;;4960198;28;20199;-63
2024/04/02 10:14:09;;;;;;;11.10;2.70;;;12.20;99.90;;;;;;4940876;28;22029;-63
2024/04/02 10:16:40;;;;;;;6.17;2.40;;;12.10;99.90;;;;;;4941175;28;20718;-64
2024/04/02 10:19:13;;;;;;;10.27;2.40;;;12.00;99.90;;;;;;4940940;28;20765;-62
2024/04/02 10:21:42;;;;;;;13.00;3.00;;;12.00;99.90;;;;;;4944800;28;20708;-62
2024/04/02 10:24:15;;;;;;;7.13;2.87;;;12.00;99.90;;;;;;4958221;28;20224;-60
2024/04/02 10:26:43;;;;;;;7.90;2.80;;;12.10;99.90;;;;;;4949953;28;20204;-62
2024/04/02 10:29:13;;;;;;;14.40;3.07;;;12.20;99.90;;;;;;4948058;28;20223;-62
2024/04/02 10:31:45;;;;;;;8.27;2.73;;;12.10;99.90;;;;;;4942781;29;20639;-61
2024/04/02 10:34:14;;;;;;;11.60;2.93;;;11.90;99.90;;;;;;4945266;28;20623;-63
2024/04/02 10:36:41;;;;;;;9.43;2.57;;;11.70;99.90;;;;;;4940115;28;20236;-60
2024/04/02 10:39:11;;;;;;;9.33;2.20;;;11.70;99.90;;;;;;4943733;28;20272;-61
2024/04/02 10:41:38;;;;;;;5.10;2.57;;;11.70;99.90;;;;;;4938276;28;20350;-61
2024/04/02 10:44:07;;;;;;;9.57;3.20;;;11.60;99.90;;;;;;4941835;28;20208;-61
2024/04/02 10:46:37;;;;;;;16.27;2.93;;;11.50;99.90;;;;;;4936789;28;20231;-61
2024/04/02 10:49:05;;;;;;;9.30;2.90;;;11.40;99.90;;;;;;4942431;28;20679;-61
2024/04/02 10:51:33;;;;;;;9.30;2.50;;;11.50;99.90;;;;;;4942053;28;20224;-61
2024/04/02 10:54:01;;;;;;;13.87;3.03;;;11.60;99.90;;;;;;4938712;28;20239;-61
2024/04/02 10:56:30;;;;;;;13.07;3.33;;;11.80;99.90;;;;;;4943622;28;21911;-61
2024/04/02 10:59:03;;;;;;;10.57;2.60;;;12.00;99.90;;;;;;4940792;29;20225;-61
2024/04/02 11:01:33;;;;;;;13.47;3.43;;;12.30;99.90;;;;;;4944749;28;20290;-61
2024/04/02 11:04:03;;;;;;;8.27;2.90;;;12.40;99.90;;;;;;4942690;28;20223;-63
2024/04/02 11:06:31;;;;;;;7.40;2.33;;;12.40;99.90;;;;;;4940466;28;20311;-61
2024/04/02 11:09:00;;;;;;;15.97;3.10;;;12.30;99.90;;;;;;4947434;28;20311;-62
2024/04/02 11:11:27;;;;;;;11.03;2.90;;;12.30;99.90;;;;;;4941241;28;20694;-62
2024/04/02 11:14:05;;;;;;;11.80;2.97;;;12.10;99.90;;;;;;4942958;28;20216;-61
2024/04/02 11:16:32;;;;;;;11.00;3.03;;;12.20;99.90;;;;;;4940230;28;20827;-62
2024/04/02 11:19:00;;;;;;;13.83;3.10;;;12.40;99.90;;;;;;4947732;28;20270;-61
2024/04/02 11:21:29;;;;;;;7.63;2.80;;;12.60;99.90;;;;;;4946649;28;20360;-62
2024/04/02 11:26:49;;;;;;;13.87;3.23;;;12.70;99.90;;;;;;4927243;28;20259;-60
2024/04/02 11:29:17;;;;;;;12.53;2.60;;;12.50;99.90;;;;;;4939885;28;20216;-61
2024/04/02 11:31:43;;;;;;;9.57;2.70;;;12.40;99.90;;;;;;4942613;28;20216;-62
2024/04/02 11:34:11;;;;;;;14.20;2.97;;;12.50;99.90;;;;;;4940313;28;20220;-61
2024/04/02 11:36:38;;;;;;;10.67;3.30;;;12.10;99.90;;;;;;4943538;28;20698;-61
2024/04/02 11:39:06;;;;;;;12.90;3.77;;;11.80;99.90;;;;;;4941445;28;20232;-62
2024/04/02 11:41:34;;;;;;;11.00;3.60;;;11.50;99.90;;;;;;4944120;28;20407;-62
2024/04/02 11:44:05;;;;;;;11.10;3.23;;;11.40;99.90;;;;;;4941527;28;20212;-62
2024/04/02 11:46:31;;;;;;;12.03;3.60;;;11.40;99.90;;;;;;4945558;28;20224;-62
2024/04/02 11:48:58;;;;;;;10.30;3.70;;;11.50;99.90;;;;;;4938613;28;20338;-62
2024/04/02 11:51:25;;;;;;;11.20;3.20;;;11.70;99.90;;;;;;4941079;29;20222;-61
2024/04/02 11:53:53;;;;;;;8.37;2.87;;;11.90;99.90;;;;;;4935532;28;20185;-62
2024/04/02 11:56:23;;;;;;;11.47;3.13;;;11.90;99.90;;;;;;4941531;28;20200;-61
2024/04/02 12:01:35;;;;;;;11.13;3.37;;;12.00;99.90;;;;;;4936978;28;20222;-61
2024/04/02 12:04:03;;;;;;;17.00;3.80;;;12.10;99.90;;;;;;4941415;28;20802;-62
2024/04/02 12:06:30;;;;;;;9.53;3.40;;;12.20;99.90;;;;;;4942593;28;20698;-62
2024/04/02 12:09:01;;;;;;;9.43;3.50;;;12.10;99.90;;;;;;4938617;29;20246;-61
2024/04/02 12:11:28;;;;;;;9.23;3.67;;;12.10;99.90;;;;;;4938980;29;20640;-61
2024/04/02 12:13:55;;;;;;;11.70;3.40;;;12.20;99.90;;;;;;4938198;28;20227;-62
2024/04/02 12:16:22;;;;;;;8.53;3.20;;;12.30;99.90;;;;;;4945818;28;20216;-62
2024/04/02 12:18:53;;;;;;;10.73;3.33;;;12.30;99.90;;;;;;4948201;28;20311;-61
2024/04/02 12:21:19;;;;;;;10.47;2.87;;;12.30;99.90;;;;;;4937287;28;20231;-61
2024/04/02 12:23:47;;;;;;;5.33;3.10;;;12.30;99.90;;;;;;4947641;28;20562;-61
2024/04/02 12:26:14;;;;;;;9.00;3.03;;;12.10;99.90;;;;;;4948046;29;20650;-62
2024/04/02 12:28:42;;;;;;;12.27;3.57;;;12.10;99.90;;;;;;4946745;28;20232;-61
2024/04/02 12:31:08;;;;;;;8.87;3.23;;;12.20;99.90;;;;;;4946394;28;20266;-62
2024/04/02 12:33:36;;;;;;;7.27;3.00;;;12.40;99.90;;;;;;4939951;28;20220;-62
2024/04/02 12:36:03;;;;;;;12.43;2.90;;;12.40;99.90;;;;;;4938999;28;20271;-62
2024/04/02 12:38:31;;;;;;;9.30;2.97;;;12.30;99.90;;;;;;4941425;29;20208;-62
2024/04/02 12:41:01;;;;;;;7.63;2.93;;;12.30;99.90;;;;;;4939353;28;20307;-62
2024/04/02 12:43:29;;;;;;;6.23;2.40;;;12.30;99.90;;;;;;4941472;28;20303;-61
2024/04/02 12:45:56;;;;;;;9.03;2.60;;;12.50;99.90;;;;;;4940285;29;20237;-61
2024/04/02 12:48:23;;;;;;;11.67;3.40;;;12.40;99.90;;;;;;4938943;28;20214;-62
2024/04/02 12:50:54;;;;;;;10.70;2.80;;;12.50;99.90;;;;;;4946165;28;20196;-62
2024/04/02 12:53:22;;;;;;;7.77;2.90;;;12.80;99.90;;;;;;4942634;28;20200;-60
2024/04/02 12:55:50;;;;;;;10.30;2.80;;;12.90;99.90;;;;;;4943792;28;20235;-61
2024/04/02 12:58:17;;;;;;;8.80;2.93;;;12.80;99.90;;;;;;4937050;28;20220;-61
2024/04/02 13:00:45;;;;;;;6.77;2.83;;;12.80;99.90;;;;;;4944090;28;20220;-61
2024/04/02 13:03:13;;;;;;;11.90;3.20;;;12.80;99.90;;;;;;4941694;28;20238;-61